Time;durP1;ratioP1;P1;durP2;ratioP2;P2;SDS_P1;SDS_P2;PMS_P1;PMS_P2;Temp;Humidity;BMP_temperature;BMP_pressure;BME280_temperature;BME280_humidity;BME280_pressure;Samples;Min_cycle;Max_cycle;Signal;HPM_P1;HPM_P2
2022/09/01 00:01:31;;;;;;;0.63;0.10;;;;;;;13.21;45.73;102442.22;5019970;28;20029;-76
2022/09/01 00:04:02;;;;;;;0.47;0.20;;;;;;;13.18;45.86;102444.91;5007447;28;20649;-76
2022/09/01 00:06:28;;;;;;;0.60;0.20;;;;;;;13.14;46.05;102432.75;4985722;28;20045;-76
2022/09/01 00:08:57;;;;;;;1.38;0.20;;;;;;;13.19;46.08;102444.88;4987042;28;20072;-78
2022/09/01 00:11:24;;;;;;;0.60;0.20;;;;;;;13.22;45.91;102444.78;5005058;28;20037;-78
2022/09/01 00:13:52;;;;;;;1.13;0.10;;;;;;;13.19;46.14;102441.41;4988193;28;20042;-78
2022/09/01 00:16:19;;;;;;;0.60;0.20;;;;;;;13.31;46.11;102435.81;5004918;28;20030;-76
2022/09/01 00:18:48;;;;;;;1.02;0.10;;;;;;;13.27;46.16;102434.16;4983482;28;20069;-75
2022/09/01 00:21:16;;;;;;;0.88;0.20;;;;;;;13.33;45.84;102431.38;5007679;28;20120;-76
2022/09/01 00:23:42;;;;;;;0.40;0.20;;;;;;;13.30;45.92;102434.09;5005144;28;20065;-78
2022/09/01 00:26:08;;;;;;;0.88;0.40;;;;;;;13.31;46.11;102435.81;5005040;28;20656;-76
2022/09/01 00:28:35;;;;;;;0.30;0.10;;;;;;;13.31;45.84;102433.19;4985637;28;20095;-78
2022/09/01 00:31:01;;;;;;;0.50;0.20;;;;;;;13.28;46.01;102430.66;5003920;28;20712;-78
2022/09/01 00:33:26;;;;;;;0.43;0.20;;;;;;;13.16;46.01;102438.84;4983008;28;20045;-76
2022/09/01 00:35:52;;;;;;;1.55;0.20;;;;;;;13.13;45.89;102438.94;5000064;28;20169;-76
2022/09/01 00:38:18;;;;;;;0.55;0.10;;;;;;;13.06;46.00;102438.22;5004683;28;23114;-77
2022/09/01 00:40:43;;;;;;;3.30;0.38;;;;;;;13.06;46.28;102436.44;5003660;28;20042;-76
2022/09/01 00:43:13;;;;;;;1.63;0.28;;;;;;;13.09;46.30;102432.88;4997251;28;21286;-77
2022/09/01 00:45:40;;;;;;;0.88;0.20;;;;;;;13.09;46.13;102441.66;4993086;28;20087;-75
2022/09/01 00:48:06;;;;;;;0.50;0.20;;;;;;;13.11;46.33;102438.97;5003768;28;20033;-77
2022/09/01 00:50:31;;;;;;;1.05;0.30;;;;;;;13.11;46.40;102445.06;4995763;28;20052;-76
2022/09/01 00:52:57;;;;;;;1.08;0.13;;;;;;;13.17;46.08;102449.31;5002594;28;20049;-76
2022/09/01 00:55:28;;;;;;;0.47;0.20;;;;;;;13.20;46.32;102443.13;4996451;28;20202;-78
2022/09/01 00:57:54;;;;;;;0.55;0.30;;;;;;;13.21;46.29;102434.34;4990393;28;20069;-75
2022/09/01 01:00:26;;;;;;;0.50;0.20;;;;;;;13.18;46.52;102439.66;4998806;28;20029;-76
2022/09/01 01:02:55;;;;;;;3.08;0.20;;;;;;;13.22;46.58;102434.28;4997363;28;20072;-76
2022/09/01 01:05:29;;;;;;;2.03;0.20;;;;;;;13.31;46.57;102441.06;4984388;28;20051;-78
2022/09/01 01:07:56;;;;;;;0.40;0.38;;;;;;;13.36;46.32;102430.44;5000553;28;20053;-75
2022/09/01 01:10:22;;;;;;;2.13;0.20;;;;;;;13.37;46.16;102435.66;5001069;28;20034;-77
2022/09/01 01:12:52;;;;;;;0.93;0.20;;;;;;;13.32;46.38;102437.56;4995577;28;20084;-77
2022/09/01 01:15:19;;;;;;;2.70;0.28;;;;;;;13.36;46.36;102422.56;4987888;28;20049;-76
2022/09/01 01:17:45;;;;;;;1.35;0.17;;;;;;;13.41;46.40;102426.78;4984255;28;20129;-78
2022/09/01 01:23:14;;;;;;;0.82;0.30;;;;;;;13.39;45.99;102423.34;4997710;28;20037;-75
2022/09/01 01:25:45;;;;;;;2.00;0.40;;;;;;;13.36;46.25;102412.94;5000810;28;20033;-76
2022/09/01 01:28:20;;;;;;;0.90;0.20;;;;;;;13.31;46.70;102417.44;4998778;28;20046;-75
2022/09/01 01:30:53;;;;;;;0.77;0.20;;;;;;;13.33;46.31;102426.13;5009429;28;20034;-75
2022/09/01 01:33:22;;;;;;;0.50;0.50;;;;;;;13.37;46.33;102419.91;4998992;28;20487;-78
2022/09/01 01:35:50;;;;;;;2.17;0.20;;;;;;;13.40;46.30;102413.69;4992649;28;20064;-76
2022/09/01 01:38:18;;;;;;;0.40;0.20;;;;;;;13.38;46.58;102413.72;4983894;28;20056;-75
2022/09/01 01:40:44;;;;;;;0.40;0.20;;;;;;;13.47;46.63;102418.75;4985465;28;20029;-76
2022/09/01 01:43:10;;;;;;;1.40;0.28;;;;;;;13.49;46.77;102416.91;4997836;28;20038;-76
2022/09/01 01:45:36;;;;;;;1.02;0.30;;;;;;;13.59;46.55;102419.34;4984916;28;20080;-75
2022/09/01 01:48:04;;;;;;;0.73;0.20;;;;;;;13.51;46.85;102416.88;4981329;28;20887;-76
2022/09/01 01:50:34;;;;;;;0.52;0.20;;;;;;;13.63;46.58;102415.69;4991560;28;20250;-76
2022/09/01 01:53:04;;;;;;;1.30;0.20;;;;;;;13.68;46.55;102419.94;4994063;28;20598;-75
2022/09/01 01:55:30;;;;;;;1.55;0.20;;;;;;;13.71;46.61;102413.72;5003003;28;20034;-76
2022/09/01 01:57:58;;;;;;;2.05;0.45;;;;;;;13.88;46.20;102421.13;4996990;28;20088;-75
2022/09/01 02:00:33;;;;;;;0.40;0.20;;;;;;;13.88;46.21;102416.72;5011556;28;20034;-76
2022/09/01 02:03:00;;;;;;;0.70;0.40;;;;;;;13.93;46.33;102420.06;5003681;28;20046;-76
2022/09/01 02:05:31;;;;;;;1.02;0.20;;;;;;;13.93;46.13;102422.69;4987178;28;20088;-77
2022/09/01 02:08:03;;;;;;;0.38;0.22;;;;;;;14.02;46.14;102412.81;5007920;28;20708;-76
2022/09/01 02:10:44;;;;;;;0.45;0.20;;;;;;;14.07;46.04;102411.75;5004033;28;20547;-76
2022/09/01 02:13:15;;;;;;;3.33;0.52;;;;;;;14.05;45.88;102418.84;4991541;28;20141;-76
2022/09/01 02:15:52;;;;;;;0.75;0.20;;;;;;;14.10;45.58;102411.69;5008677;28;20092;-76
2022/09/01 02:18:22;;;;;;;0.90;0.35;;;;;;;14.11;45.81;102412.53;5002602;28;20742;-79
2022/09/01 02:20:49;;;;;;;0.47;0.20;;;;;;;14.17;45.55;102406.25;5003070;28;20030;-76
2022/09/01 02:23:22;;;;;;;3.13;0.20;;;;;;;14.19;45.66;102407.03;5009166;28;20078;-77
2022/09/01 02:25:49;;;;;;;1.80;0.30;;;;;;;14.30;45.11;102408.44;5005243;28;20073;-77
2022/09/01 02:28:22;;;;;;;0.57;0.10;;;;;;;14.31;45.10;102407.53;5003260;28;20415;-76
2022/09/01 02:30:53;;;;;;;0.50;0.10;;;;;;;14.31;45.28;102404.03;5005735;28;20472;-78
2022/09/01 02:33:21;;;;;;;0.65;0.10;;;;;;;14.29;44.91;102405.84;4986522;28;20096;-77
2022/09/01 02:35:51;;;;;;;0.35;0.20;;;;;;;14.13;45.60;102394.97;4995713;28;20042;-77
2022/09/01 02:38:17;;;;;;;0.68;0.13;;;;;;;14.23;45.24;102404.28;4989753;28;20045;-77
2022/09/01 02:40:45;;;;;;;0.43;0.20;;;;;;;14.27;45.10;102403.25;4987792;28;20701;-77
2022/09/01 02:43:13;;;;;;;0.70;0.10;;;;;;;14.29;45.35;102401.44;5001787;28;20126;-77
2022/09/01 02:45:43;;;;;;;0.60;0.20;;;;;;;14.22;45.39;102399.94;4992928;28;20056;-76
2022/09/01 02:48:09;;;;;;;0.65;0.20;;;;;;;14.31;45.34;102399.63;5003364;28;20080;-77
2022/09/01 02:50:40;;;;;;;0.40;0.10;;;;;;;14.36;45.08;102397.72;5005118;28;20337;-77
2022/09/01 02:53:08;;;;;;;0.38;0.08;;;;;;;14.39;45.12;102396.78;5009748;28;20049;-77
2022/09/01 02:55:38;;;;;;;0.80;0.10;;;;;;;14.47;44.87;102409.69;5002096;28;20040;-76
2022/09/01 02:58:06;;;;;;;0.32;0.13;;;;;;;14.39;44.99;102391.50;4998362;28;20053;-77
2022/09/01 03:00:38;;;;;;;0.30;0.10;;;;;;;14.41;44.88;102397.63;4993233;28;20033;-77
2022/09/01 03:03:05;;;;;;;1.80;0.10;;;;;;;14.46;44.79;102387.81;4984405;28;20514;-76
2022/09/01 03:05:34;;;;;;;0.40;0.10;;;;;;;14.40;44.98;102392.38;4984092;28;20155;-76
2022/09/01 03:08:06;;;;;;;1.75;0.10;;;;;;;14.22;45.26;102399.06;4982043;28;20103;-77
2022/09/01 03:10:35;;;;;;;0.13;0.00;;;;;;;14.51;44.85;102396.41;4992196;28;20041;-77
2022/09/01 03:13:05;;;;;;;1.27;0.10;;;;;;;14.57;44.55;102395.34;4975144;28;20106;-78
2022/09/01 03:15:32;;;;;;;0.90;0.10;;;;;;;14.59;44.58;102393.53;4992093;28;20037;-77
2022/09/01 03:17:59;;;;;;;0.55;0.10;;;;;;;14.59;44.79;102390.00;4985980;28;20076;-75
2022/09/01 03:20:27;;;;;;;0.38;0.10;;;;;;;14.62;44.47;102395.19;5001631;28;20117;-76
2022/09/01 03:22:55;;;;;;;0.30;0.10;;;;;;;14.65;44.55;102388.03;4992146;28;20046;-76
2022/09/01 03:25:22;;;;;;;1.27;0.10;;;;;;;14.59;44.56;102390.91;4987409;28;20041;-76
2022/09/01 03:27:47;;;;;;;1.75;0.20;;;;;;;14.62;44.55;102392.56;4991150;28;20057;-77
2022/09/01 03:30:14;;;;;;;0.40;0.20;;;;;;;14.54;44.65;102390.16;4985888;28;20088;-76
2022/09/01 03:32:39;;;;;;;0.30;0.17;;;;;;;14.61;44.79;102386.41;4985392;28;20448;-78
2022/09/01 03:35:07;;;;;;;0.80;0.10;;;;;;;14.61;44.81;102378.53;4986462;28;20121;-75
2022/09/01 03:37:33;;;;;;;1.55;0.20;;;;;;;14.65;44.48;102377.50;5002611;28;20088;-75
2022/09/01 03:39:59;;;;;;;1.38;0.10;;;;;;;14.63;44.58;102378.47;4984273;28;20037;-76
2022/09/01 03:42:28;;;;;;;0.40;0.17;;;;;;;14.56;44.83;102378.69;5005306;28;20046;-78
2022/09/01 03:44:55;;;;;;;0.55;0.20;;;;;;;14.61;44.64;102375.88;4987437;28;20038;-75
2022/09/01 03:47:21;;;;;;;0.60;0.20;;;;;;;14.51;45.13;102377.13;4987694;28;20034;-77
2022/09/01 03:49:48;;;;;;;0.50;0.20;;;;;;;14.51;45.29;102375.34;4986074;28;20141;-76
2022/09/01 03:52:16;;;;;;;0.77;0.30;;;;;;;14.44;45.48;102379.09;5007034;28;20088;-78
2022/09/01 03:54:42;;;;;;;0.70;0.10;;;;;;;14.50;45.10;102378.03;4998736;28;20954;-78
2022/09/01 03:57:09;;;;;;;2.50;0.20;;;;;;;14.51;45.36;102374.50;4986755;28;20775;-76
2022/09/01 03:59:35;;;;;;;2.13;0.30;;;;;;;14.50;45.47;102385.91;4987137;28;20041;-78
2022/09/01 04:02:01;;;;;;;1.00;0.20;;;;;;;14.47;45.47;102381.63;4982901;28;20057;-78
2022/09/01 04:04:31;;;;;;;0.45;0.20;;;;;;;14.47;45.33;102378.13;5001873;28;20121;-78
2022/09/01 04:07:01;;;;;;;2.50;0.15;;;;;;;14.52;45.32;102376.19;4992009;28;20093;-77
2022/09/01 04:09:27;;;;;;;0.50;0.10;;;;;;;14.46;45.60;102379.91;5000491;28;20085;-79
2022/09/01 04:11:53;;;;;;;0.73;0.20;;;;;;;14.54;45.66;102379.66;4986428;28;20041;-77
2022/09/01 04:14:20;;;;;;;1.30;0.20;;;;;;;14.54;45.62;102382.28;4986468;28;20045;-77
2022/09/01 04:19:35;;;;;;;0.77;0.20;;;;;;;14.54;45.60;102377.91;5019333;28;20065;-77
2022/09/01 04:22:02;;;;;;;1.95;0.40;;;;;;;14.50;45.51;102378.03;4988154;28;20771;-78
2022/09/01 04:24:32;;;;;;;0.57;0.20;;;;;;;14.50;45.95;102376.28;5018818;28;20034;-77
2022/09/01 04:27:00;;;;;;;0.60;0.30;;;;;;;14.49;45.95;102376.31;4985998;28;20101;-78
2022/09/01 04:29:28;;;;;;;1.95;0.30;;;;;;;14.46;46.06;102377.28;4982664;28;20471;-78
2022/09/01 04:32:00;;;;;;;1.00;0.40;;;;;;;14.31;46.49;102378.59;4999893;28;20289;-78
2022/09/01 04:34:27;;;;;;;0.43;0.20;;;;;;;14.30;46.68;102381.25;4994614;28;20040;-77
2022/09/01 04:36:54;;;;;;;0.60;0.20;;;;;;;14.25;46.55;102378.78;5007880;28;20097;-76
2022/09/01 04:39:21;;;;;;;1.10;0.30;;;;;;;14.28;46.50;102380.47;4987662;28;20033;-77
2022/09/01 04:41:46;;;;;;;1.73;0.30;;;;;;;14.23;46.78;102375.38;5002352;28;20022;-76
2022/09/01 04:44:17;;;;;;;1.55;0.38;;;;;;;14.15;46.98;102383.47;4991398;28;20036;-78
2022/09/01 04:46:47;;;;;;;1.27;0.30;;;;;;;14.16;47.22;102376.44;4986459;28;20040;-76
2022/09/01 04:49:18;;;;;;;1.83;0.50;;;;;;;14.24;46.90;102377.06;5000040;28;20037;-78
2022/09/01 04:51:47;;;;;;;3.72;0.43;;;;;;;14.15;47.10;102377.38;5020970;28;20033;-77
2022/09/01 04:54:13;;;;;;;2.90;0.40;;;;;;;14.31;46.99;102383.84;5011898;28;20019;-77
2022/09/01 04:56:43;;;;;;;2.25;0.30;;;;;;;14.30;46.99;102376.88;4995328;28;20041;-78
2022/09/01 04:59:14;;;;;;;0.75;0.30;;;;;;;14.32;47.07;102382.97;5005957;28;20021;-74
2022/09/01 05:01:44;;;;;;;1.90;0.43;;;;;;;14.32;47.11;102380.34;5003431;28;20029;-76
2022/09/01 05:04:16;;;;;;;3.55;0.43;;;;;;;14.39;46.63;102375.72;4987685;28;20498;-78
2022/09/01 05:06:45;;;;;;;1.38;0.40;;;;;;;14.45;46.80;102374.69;5005305;28;20113;-78
2022/09/01 05:09:12;;;;;;;3.55;0.35;;;;;;;14.51;46.63;102377.13;4983725;28;20026;-77
2022/09/01 05:11:45;;;;;;;0.77;0.35;;;;;;;14.42;46.62;102374.81;4978609;28;20053;-76
2022/09/01 05:14:21;;;;;;;1.35;0.65;;;;;;;14.46;46.71;102376.44;4987099;28;20034;-76
2022/09/01 05:16:48;;;;;;;2.35;0.30;;;;;;;14.59;46.46;102380.38;4997172;28;20033;-75
2022/09/01 05:19:19;;;;;;;1.58;0.50;;;;;;;14.67;46.52;102385.38;4993236;28;20052;-75
2022/09/01 05:21:46;;;;;;;;;;;;;;;14.71;46.49;102376.47;5003643;28;20105;-76
2022/09/01 05:24:16;;;;;;;2.28;0.40;;;;;;;14.79;46.09;102384.09;4984979;28;19984;-75
2022/09/01 05:26:43;;;;;;;0.65;0.20;;;;;;;14.69;46.30;102384.41;4975923;28;20033;-76
2022/09/01 05:29:12;;;;;;;2.90;0.20;;;;;;;14.87;45.82;102376.81;5001836;28;20310;-76
2022/09/01 05:31:40;;;;;;;5.72;0.60;;;;;;;14.93;45.97;102373.97;4992333;28;20659;-78
2022/09/01 05:34:08;;;;;;;2.33;0.55;;;;;;;14.91;46.05;102383.69;4984905;28;20045;-76
2022/09/01 05:36:38;;;;;;;1.00;0.20;;;;;;;14.90;46.43;102381.94;5001695;28;20038;-77
2022/09/01 05:39:06;;;;;;;1.60;0.50;;;;;;;14.88;46.22;102383.78;4987100;28;20229;-78
2022/09/01 05:41:34;;;;;;;2.03;0.30;;;;;;;14.90;46.30;102387.22;4998576;28;20488;-78
2022/09/01 05:44:03;;;;;;;4.28;0.30;;;;;;;14.89;46.33;102385.50;4999294;28;20050;-76
2022/09/01 05:46:28;;;;;;;1.20;0.50;;;;;;;15.07;45.90;102369.06;4996113;28;20029;-77
2022/09/01 05:48:56;;;;;;;2.17;0.30;;;;;;;15.18;45.95;102377.44;4985313;28;20042;-78
2022/09/01 05:51:25;;;;;;;1.33;0.52;;;;;;;15.32;45.61;102384.00;4986853;28;20038;-75
2022/09/01 05:53:57;;;;;;;0.63;0.20;;;;;;;15.38;45.40;102392.56;4980925;28;20050;-75
2022/09/01 05:56:25;;;;;;;1.05;0.63;;;;;;;15.46;45.02;102386.13;5001758;28;20037;-75
2022/09/01 05:58:52;;;;;;;2.58;0.40;;;;;;;15.39;45.28;102393.41;4999089;28;20392;-78
2022/09/01 06:01:21;;;;;;;5.05;0.52;;;;;;;15.54;45.03;102390.22;4980196;28;20033;-76
2022/09/01 06:03:53;;;;;;;1.73;0.57;;;;;;;15.57;44.82;102390.13;5001086;28;20094;-77
2022/09/01 06:06:21;;;;;;;;;;;;;;;15.65;44.86;102381.06;5004762;28;20017;-76
2022/09/01 06:08:49;;;;;;;1.08;0.30;;;;;;;15.60;45.19;102389.16;5019162;28;19927;-78
2022/09/01 06:11:17;;;;;;;0.95;0.73;;;;;;;15.74;44.67;102385.97;4986056;28;20099;-75
2022/09/01 06:13:46;;;;;;;1.30;0.88;;;;;;;15.64;45.19;102388.13;5004849;28;20627;-76
2022/09/01 06:16:16;;;;;;;2.65;0.30;;;;;;;15.69;44.70;102380.88;5001150;28;20034;-76
2022/09/01 06:18:42;;;;;;;4.13;0.43;;;;;;;15.74;44.77;102388.63;4998041;28;20131;-76
2022/09/01 06:21:13;;;;;;;1.10;0.47;;;;;;;15.85;45.10;102389.06;4998428;28;20127;-76
2022/09/01 06:23:41;;;;;;;2.10;0.60;;;;;;;15.95;44.47;102386.91;4985637;28;20038;-76
2022/09/01 06:26:18;;;;;;;0.70;0.30;;;;;;;16.02;44.68;102392.84;4993302;28;20026;-76
2022/09/01 06:28:44;;;;;;;1.60;0.50;;;;;;;16.25;43.89;102391.97;4996075;28;20037;-75
2022/09/01 06:31:11;;;;;;;1.58;0.93;;;;;;;16.37;43.54;102391.44;4985276;28;20111;-75
2022/09/01 06:33:39;;;;;;;1.45;0.38;;;;;;;16.58;43.39;102384.44;5010509;28;20045;-76
2022/09/01 06:36:05;;;;;;;2.75;0.50;;;;;;;16.62;42.89;102391.28;5007098;28;20658;-76
2022/09/01 06:38:30;;;;;;;1.20;0.40;;;;;;;16.65;42.94;102391.19;5007476;28;20147;-76
2022/09/01 06:41:11;;;;;;;0.90;0.30;;;;;;;17.51;43.46;102397.19;4991501;28;20022;-77
2022/09/01 06:43:40;;;;;;;4.97;0.88;;;;;;;18.37;39.08;102395.81;4999064;28;20526;-78
2022/09/01 06:46:08;;;;;;;4.85;0.47;;;;;;;19.58;37.65;102394.06;5014200;28;20028;-77
2022/09/01 06:48:45;;;;;;;1.80;0.30;;;;;;;21.00;34.81;102397.44;4988843;28;20055;-76
2022/09/01 06:51:16;;;;;;;3.63;0.28;;;;;;;20.89;35.26;102408.75;4989022;28;20037;-76
2022/09/01 06:53:44;;;;;;;4.07;0.80;;;;;;;21.07;34.62;102401.47;4984756;28;20045;-76
2022/09/01 06:56:12;;;;;;;2.85;1.10;;;;;;;20.37;34.78;102412.63;4992358;28;20030;-76
2022/09/01 06:58:40;;;;;;;1.65;0.32;;;;;;;21.63;33.06;102402.44;4999741;28;20046;-76
2022/09/01 07:01:14;;;;;;;1.08;0.30;;;;;;;23.38;30.09;102400.59;4984152;28;20025;-76
2022/09/01 07:03:46;;;;;;;1.52;0.43;;;;;;;22.75;30.85;102407.59;4988406;28;20034;-74
2022/09/01 07:06:23;;;;;;;2.22;0.40;;;;;;;22.41;31.20;102412.50;5008422;28;20106;-77
2022/09/01 07:09:08;;;;;;;2.03;0.30;;;;;;;24.79;28.32;102403.53;5012396;28;20135;-76
2022/09/01 07:11:35;;;;;;;0.82;0.20;;;;;;;28.06;24.41;102390.50;5004492;28;20267;-78
2022/09/01 07:14:04;;;;;;;2.13;0.20;;;;;;;28.83;22.33;102394.13;5001564;28;20046;-76
2022/09/01 07:16:33;;;;;;;1.33;0.30;;;;;;;26.20;24.81;102399.50;4985945;28;20557;-77
2022/09/01 07:19:01;;;;;;;0.77;0.10;;;;;;;24.49;27.33;102408.56;4985036;28;20054;-77
2022/09/01 07:21:32;;;;;;;0.60;0.20;;;;;;;22.25;30.29;102418.00;4989913;28;20076;-78
2022/09/01 07:24:00;;;;;;;0.40;0.10;;;;;;;21.10;32.26;102418.06;5001092;28;20088;-77
2022/09/01 07:26:27;;;;;;;1.55;0.20;;;;;;;22.07;30.24;102421.81;4985368;28;20033;-79
2022/09/01 07:28:56;;;;;;;0.63;0.20;;;;;;;22.16;31.09;102421.28;4992044;28;20452;-77
2022/09/01 07:31:28;;;;;;;2.55;0.30;;;;;;;24.68;28.06;102418.72;4988459;28;20033;-78
2022/09/01 07:33:57;;;;;;;1.48;0.28;;;;;;;26.20;25.86;102420.94;4985295;28;20127;-79
2022/09/01 07:36:25;;;;;;;3.45;0.35;;;;;;;27.87;22.59;102416.34;4984768;28;20068;-79
2022/09/01 07:38:55;;;;;;;11.57;1.65;;;;;;;28.63;22.38;102415.69;5004190;28;20121;-76
2022/09/01 07:41:23;;;;;;;7.85;1.38;;;;;;;29.65;21.53;102416.78;4990615;28;20123;-74
2022/09/01 07:43:55;;;;;;;76.07;8.15;;;;;;;30.32;20.33;102414.59;5002175;28;20683;-78
2022/09/01 07:46:24;;;;;;;15.57;1.52;;;;;;;31.08;19.50;102413.13;5017589;28;20033;-78
2022/09/01 07:48:54;;;;;;;8.50;0.50;;;;;;;30.06;20.17;102412.63;5009482;28;20039;-79
2022/09/01 07:51:23;;;;;;;42.92;3.45;;;;;;;29.78;20.74;102407.31;4988793;28;20064;-78
2022/09/01 07:53:49;;;;;;;45.22;5.82;;;;;;;29.15;22.43;102416.16;5016242;28;20048;-79
2022/09/01 07:56:19;;;;;;;1.45;0.20;;;;;;;29.04;20.12;102419.00;5001857;28;20029;-76
2022/09/01 07:58:48;;;;;;;4.45;1.75;;;;;;;28.75;21.77;102411.84;4988482;28;20041;-78
2022/09/01 08:01:17;;;;;;;0.70;0.10;;;;;;;28.10;21.91;102419.63;5001020;28;20025;-78
2022/09/01 08:03:50;;;;;;;6.03;0.30;;;;;;;28.13;22.13;102421.22;4993303;28;20054;-78
2022/09/01 08:06:20;;;;;;;1.27;0.30;;;;;;;28.27;21.55;102409.19;5005912;28;20744;-77
2022/09/01 08:08:48;;;;;;;5.20;0.43;;;;;;;28.23;21.42;102413.16;5004636;28;20401;-79
2022/09/01 08:11:17;;;;;;;32.78;4.78;;;;;;;28.79;21.00;102419.63;4987601;28;20040;-77
2022/09/01 08:13:44;;;;;;;57.08;7.97;;;;;;;30.32;20.05;102419.97;5000907;28;20527;-80
2022/09/01 08:16:11;;;;;;;12.60;0.70;;;;;;;30.15;19.37;102418.97;4986009;28;20038;-78
2022/09/01 08:18:37;;;;;;;4.80;0.63;;;;;;;29.64;20.35;102426.72;4979870;28;20443;-78
2022/09/01 08:21:10;;;;;;;1.60;0.25;;;;;;;30.39;19.09;102427.28;4999398;28;20040;-79
2022/09/01 08:24:05;;;;;;;36.58;2.67;;;;;;;30.00;20.18;102421.34;4993012;28;20038;-79
2022/09/01 08:26:34;;;;;;;11.38;0.63;;;;;;;30.37;19.30;102418.50;5010606;28;20030;-79
2022/09/01 08:29:01;;;;;;;4.82;0.55;;;;;;;30.99;18.98;102428.41;5000916;28;20056;-79
2022/09/01 08:31:34;;;;;;;16.02;1.85;;;;;;;31.06;18.26;102423.22;4994977;28;20101;-79
2022/09/01 08:34:02;;;;;;;0.57;0.10;;;;;;;29.67;19.55;102417.47;5005207;28;20049;-77
2022/09/01 08:36:27;;;;;;;2.35;0.20;;;;;;;29.46;20.16;102423.94;4995688;28;20116;-78
2022/09/01 08:38:53;;;;;;;1.40;0.20;;;;;;;28.95;19.83;102419.88;5011408;28;20137;-75
2022/09/01 08:41:41;;;;;;;11.57;0.52;;;;;;;28.71;20.86;102413.13;5007238;28;20053;-76
2022/09/01 08:44:40;;;;;;;0.60;0.20;;;;;;;28.33;21.08;102420.22;4986384;28;20137;-77
2022/09/01 08:47:09;;;;;;;3.50;0.40;;;;;;;26.89;22.68;102424.97;5014285;28;20041;-78
2022/09/01 08:49:38;;;;;;;31.00;2.28;;;;;;;26.66;22.44;102422.44;5005817;28;20060;-78
2022/09/01 08:52:12;;;;;;;;;;;;;;;27.03;22.13;102418.44;5005814;28;20083;-78
2022/09/01 08:55:04;;;;;;;1.00;0.57;;;;;;;26.50;22.42;102422.00;5003291;28;19928;-80
2022/09/01 08:57:38;;;;;;;0.63;0.13;;;;;;;25.67;24.07;102423.47;5009833;28;20050;-79
2022/09/01 09:00:38;;;;;;;1.77;0.10;;;;;;;26.65;22.54;102415.38;5001665;28;20042;-78
2022/09/01 09:03:24;;;;;;;1.55;0.10;;;;;;;26.00;23.17;102425.22;5005167;28;20172;-77
2022/09/01 09:05:49;;;;;;;0.65;0.10;;;;;;;25.72;23.43;102423.09;5026798;28;20087;-74
2022/09/01 09:08:21;;;;;;;0.40;0.10;;;;;;;23.50;25.61;102414.84;4986524;28;20038;-75
2022/09/01 09:10:48;;;;;;;;;;;;;;;22.45;26.57;102419.34;4984079;28;20045;-76
2022/09/01 09:13:39;;;;;;;2.28;0.20;;;;;;;22.63;27.36;102421.72;4985822;28;19921;-77
2022/09/01 09:16:26;;;;;;;2.50;0.10;;;;;;;23.00;27.40;102415.59;5011024;28;20956;-75
2022/09/01 09:18:58;;;;;;;4.05;2.72;;;;;;;23.69;25.92;102412.59;5001173;28;20050;-77
2022/09/01 09:21:39;;;;;;;0.63;0.10;;;;;;;23.24;25.76;102401.53;5009356;28;20025;-78
2022/09/01 09:24:47;;;;;;;2.00;0.10;;;;;;;23.11;26.31;102411.34;4999439;28;20048;-76
2022/09/01 09:27:25;;;;;;;2.90;0.60;;;;;;;22.47;26.47;102414.78;4989777;28;20611;-78
2022/09/01 09:29:57;;;;;;;0.85;0.20;;;;;;;22.52;26.90;102406.47;5003213;28;20033;-78
2022/09/01 09:32:23;;;;;;;;;;;;;;;23.42;27.20;102400.25;4993393;28;20136;-78
2022/09/01 09:34:50;;;;;;;2.90;0.10;;;;;;;24.02;25.28;102395.09;5001953;28;20445;-79
2022/09/01 09:37:16;;;;;;;1.25;0.40;;;;;;;24.15;25.57;102390.56;5003434;28;20281;-77
2022/09/01 09:39:42;;;;;;;1.63;0.10;;;;;;;24.56;25.28;102389.28;4996881;28;20042;-77
2022/09/01 09:42:12;;;;;;;1.25;0.20;;;;;;;24.16;23.70;102397.59;5000667;28;20038;-77
2022/09/01 09:44:51;;;;;;;2.25;0.13;;;;;;;23.80;24.87;102390.44;5002644;28;20030;-77
2022/09/01 09:47:35;;;;;;;0.85;0.13;;;;;;;23.14;26.04;102401.34;5018019;28;20045;-77
2022/09/01 09:50:16;;;;;;;0.55;0.10;;;;;;;23.33;26.04;102398.25;5002893;28;20102;-77
2022/09/01 09:52:43;;;;;;;0.73;0.20;;;;;;;23.88;24.84;102397.91;4999837;28;20179;-78
2022/09/01 09:55:24;;;;;;;1.90;0.10;;;;;;;23.81;25.37;102392.16;5001154;28;20022;-76
2022/09/01 09:57:54;;;;;;;1.02;0.10;;;;;;;24.14;24.65;102383.50;4990720;28;20045;-76
2022/09/01 10:00:23;;;;;;;20.15;3.13;;;;;;;24.54;24.00;102393.03;5005178;28;20041;-78
2022/09/01 10:03:00;;;;;;;3.83;0.68;;;;;;;24.93;24.22;102375.75;5008939;28;20042;-78
2022/09/01 10:05:28;;;;;;;3.05;0.30;;;;;;;25.03;23.31;102375.91;5006703;28;20025;-78
2022/09/01 10:07:55;;;;;;;0.43;0.10;;;;;;;24.60;23.51;102380.06;4985071;28;20139;-78
2022/09/01 10:10:43;;;;;;;3.55;0.40;;;;;;;24.48;23.88;102377.47;4994062;28;20026;-79
2022/09/01 10:13:16;;;;;;;7.78;0.95;;;;;;;24.46;23.27;102366.91;4993251;28;20841;-79
2022/09/01 10:16:16;;;;;;;3.15;0.28;;;;;;;24.01;24.19;102369.34;5006568;28;20049;-78
2022/09/01 10:18:45;;;;;;;13.38;0.90;;;;;;;24.56;23.07;102372.41;5004270;28;20064;-78
2022/09/01 10:21:46;;;;;;;0.50;0.10;;;;;;;24.36;22.92;102379.22;4992284;28;20045;-79
2022/09/01 10:24:38;;;;;;;56.22;5.30;;;;;;;24.64;23.68;102370.84;4967836;28;20166;-78
2022/09/01 10:27:17;;;;;;;1.00;0.17;;;;;;;24.77;22.51;102375.22;4989763;28;20547;-77
2022/09/01 10:29:46;;;;;;;0.28;0.10;;;;;;;24.18;22.84;102382.31;4995977;28;20064;-78
2022/09/01 10:32:18;;;;;;;4.30;0.10;;;;;;;24.13;23.31;102381.81;4988791;28;20045;-78
2022/09/01 10:34:46;;;;;;;0.50;0.10;;;;;;;24.00;24.09;102375.66;5001519;28;20026;-78
2022/09/01 10:37:12;;;;;;;2.05;0.20;;;;;;;24.86;23.00;102371.81;5007333;28;20052;-80
2022/09/01 10:40:12;;;;;;;5.60;0.65;;;;;;;26.06;21.64;102375.66;5006765;28;20044;-78
2022/09/01 10:42:41;;;;;;;0.52;0.10;;;;;;;26.25;20.30;102367.78;4998544;28;20195;-79
2022/09/01 10:45:27;;;;;;;5.13;0.10;;;;;;;25.80;21.00;102375.97;5010436;28;20029;-75
2022/09/01 10:47:53;;;;;;;0.30;0.10;;;;;;;25.52;21.85;102371.16;5020517;28;20042;-76
2022/09/01 10:50:28;;;;;;;1.13;0.10;;;;;;;25.98;21.85;102365.56;4988682;28;20041;-77
2022/09/01 10:53:00;;;;;;;2.67;0.13;;;;;;;25.16;22.14;102367.75;4991962;28;20046;-78
2022/09/01 10:55:40;;;;;;;25.77;1.85;;;;;;;24.73;22.54;102365.75;4995236;28;20085;-78
2022/09/01 10:58:32;;;;;;;14.90;1.70;;;;;;;23.56;23.84;102361.91;5011140;28;20056;-78
2022/09/01 11:01:00;;;;;;;5.07;1.33;;;;;;;24.18;22.66;102357.41;4992570;28;20889;-77
2022/09/01 11:03:25;;;;;;;18.15;1.40;;;;;;;23.65;23.25;102356.88;5008079;28;20058;-78
2022/09/01 11:05:54;;;;;;;13.52;0.88;;;;;;;23.49;23.91;102365.13;5006002;28;20036;-78
2022/09/01 11:08:25;;;;;;;12.95;0.57;;;;;;;24.08;21.77;102357.28;5004922;28;20046;-76
2022/09/01 11:11:13;;;;;;;9.90;0.88;;;;;;;23.98;22.84;102361.59;5000209;28;20030;-76
2022/09/01 11:13:49;;;;;;;0.63;0.15;;;;;;;23.19;23.57;102359.19;5016700;28;20508;-77
2022/09/01 11:16:35;;;;;;;2.17;0.40;;;;;;;22.78;25.15;102349.63;4988998;28;20746;-76
2022/09/01 11:19:20;;;;;;;0.68;0.10;;;;;;;23.94;24.77;102352.09;5013485;28;20065;-77
2022/09/01 11:21:46;;;;;;;0.57;0.10;;;;;;;23.62;24.23;102345.44;5008628;28;20133;-76
2022/09/01 11:25:05;;;;;;;1.52;0.15;;;;;;;23.76;25.91;102347.09;4985614;28;20043;-77
2022/09/01 11:27:58;;;;;;;0.40;0.10;;;;;;;23.21;24.71;102345.75;4966572;28;20054;-77
2022/09/01 11:30:30;;;;;;;5.00;0.10;;;;;;;22.40;25.34;102349.53;4991224;28;20042;-77
2022/09/01 11:33:28;;;;;;;2.00;0.10;;;;;;;23.11;25.04;102334.03;4998196;28;20081;-77
2022/09/01 11:36:04;;;;;;;0.70;0.10;;;;;;;22.71;25.28;102342.13;4951951;28;20084;-78
2022/09/01 11:38:40;;;;;;;1.67;0.20;;;;;;;22.43;25.86;102337.81;4981558;28;20053;-76
2022/09/01 11:41:05;;;;;;;9.15;0.55;;;;;;;22.05;25.91;102338.53;4999831;28;20103;-78
2022/09/01 11:43:31;;;;;;;40.95;3.17;;;;;;;22.65;25.10;102340.72;4986552;28;20144;-76
2022/09/01 11:46:14;;;;;;;12.48;0.98;;;;;;;23.09;25.07;102346.59;5005296;28;20030;-76
2022/09/01 11:48:48;;;;;;;16.63;1.02;;;;;;;22.73;25.17;102330.41;5000922;28;20046;-77
2022/09/01 11:51:14;;;;;;;4.75;0.40;;;;;;;22.18;25.79;102340.34;5004266;28;20068;-77